sensor_id;sensor_type;location;lat;lon;timestamp;P1;durP1;ratioP1;P2;durP2;ratioP2
19193;SDS011;9729;52.296;13.260;2023-09-19T00:00:29;6.90;;;4.60;;
19193;SDS011;9729;52.296;13.260;2023-09-19T00:02:58;10.03;;;5.60;;
19193;SDS011;9729;52.296;13.260;2023-09-19T00:05:26;5.60;;;4.93;;
19193;SDS011;9729;52.296;13.260;2023-09-19T00:07:54;7.33;;;4.57;;
19193;SDS011;9729;52.296;13.260;2023-09-19T00:10:21;8.37;;;5.67;;
19193;SDS011;9729;52.296;13.260;2023-09-19T00:12:49;6.70;;;5.43;;
19193;SDS011;9729;52.296;13.260;2023-09-19T00:15:16;7.33;;;5.40;;
19193;SDS011;9729;52.296;13.260;2023-09-19T00:17:43;8.47;;;5.17;;
19193;SDS011;9729;52.296;13.260;2023-09-19T00:20:10;9.93;;;6.03;;
19193;SDS011;9729;52.296;13.260;2023-09-19T00:22:40;6.73;;;5.30;;
19193;SDS011;9729;52.296;13.260;2023-09-19T00:25:07;7.67;;;5.10;;
19193;SDS011;9729;52.296;13.260;2023-09-19T00:27:34;8.47;;;5.87;;
19193;SDS011;9729;52.296;13.260;2023-09-19T00:30:05;5.47;;;4.97;;
19193;SDS011;9729;52.296;13.260;2023-09-19T00:32:34;5.87;;;5.37;;
19193;SDS011;9729;52.296;13.260;2023-09-19T00:35:02;6.00;;;5.27;;
19193;SDS011;9729;52.296;13.260;2023-09-19T00:37:29;10.00;;;5.00;;
19193;SDS011;9729;52.296;13.260;2023-09-19T00:39:57;9.97;;;5.83;;
19193;SDS011;9729;52.296;13.260;2023-09-19T00:42:23;7.97;;;5.60;;
19193;SDS011;9729;52.296;13.260;2023-09-19T00:44:50;7.83;;;5.87;;
19193;SDS011;9729;52.296;13.260;2023-09-19T00:47:17;6.87;;;5.53;;
19193;SDS011;9729;52.296;13.260;2023-09-19T00:49:43;7.00;;;5.00;;
19193;SDS011;9729;52.296;13.260;2023-09-19T00:52:14;6.63;;;5.40;;
19193;SDS011;9729;52.296;13.260;2023-09-19T00:54:40;8.70;;;4.83;;
19193;SDS011;9729;52.296;13.260;2023-09-19T00:57:08;7.03;;;5.43;;
19193;SDS011;9729;52.296;13.260;2023-09-19T00:59:34;7.80;;;5.57;;
19193;SDS011;9729;52.296;13.260;2023-09-19T01:02:01;5.40;;;4.90;;
19193;SDS011;9729;52.296;13.260;2023-09-19T01:04:28;12.63;;;6.20;;
19193;SDS011;9729;52.296;13.260;2023-09-19T01:06:55;8.43;;;5.43;;
19193;SDS011;9729;52.296;13.260;2023-09-19T01:09:22;15.27;;;6.43;;
19193;SDS011;9729;52.296;13.260;2023-09-19T01:11:50;6.60;;;5.17;;
19193;SDS011;9729;52.296;13.260;2023-09-19T01:14:23;6.67;;;5.10;;
19193;SDS011;9729;52.296;13.260;2023-09-19T01:16:56;5.47;;;5.07;;
19193;SDS011;9729;52.296;13.260;2023-09-19T01:19:38;8.43;;;5.07;;
19193;SDS011;9729;52.296;13.260;2023-09-19T01:22:36;5.40;;;5.00;;
19193;SDS011;9729;52.296;13.260;2023-09-19T01:28:20;7.60;;;5.47;;
19193;SDS011;9729;52.296;13.260;2023-09-19T01:31:03;7.10;;;4.80;;
19193;SDS011;9729;52.296;13.260;2023-09-19T01:33:33;5.57;;;5.07;;
19193;SDS011;9729;52.296;13.260;2023-09-19T01:36:22;14.67;;;5.73;;
19193;SDS011;9729;52.296;13.260;2023-09-19T01:38:48;6.10;;;4.80;;
19193;SDS011;9729;52.296;13.260;2023-09-19T01:41:15;5.97;;;4.87;;
19193;SDS011;9729;52.296;13.260;2023-09-19T01:43:45;6.27;;;4.77;;
19193;SDS011;9729;52.296;13.260;2023-09-19T01:46:14;6.20;;;4.93;;
19193;SDS011;9729;52.296;13.260;2023-09-19T01:48:43;5.47;;;4.97;;
19193;SDS011;9729;52.296;13.260;2023-09-19T01:51:15;7.57;;;5.13;;
19193;SDS011;9729;52.296;13.260;2023-09-19T01:53:50;6.30;;;4.97;;
19193;SDS011;9729;52.296;13.260;2023-09-19T01:56:21;6.27;;;4.73;;
19193;SDS011;9729;52.296;13.260;2023-09-19T01:58:50;7.83;;;5.40;;
19193;SDS011;9729;52.296;13.260;2023-09-19T02:01:22;5.83;;;4.57;;
19193;SDS011;9729;52.296;13.260;2023-09-19T02:03:49;6.40;;;5.60;;
19193;SDS011;9729;52.296;13.260;2023-09-19T02:06:16;7.43;;;5.00;;
19193;SDS011;9729;52.296;13.260;2023-09-19T02:08:44;6.57;;;5.03;;
19193;SDS011;9729;52.296;13.260;2023-09-19T02:11:10;5.57;;;5.07;;
19193;SDS011;9729;52.296;13.260;2023-09-19T02:13:38;5.70;;;5.20;;
19193;SDS011;9729;52.296;13.260;2023-09-19T02:16:04;5.57;;;5.00;;
19193;SDS011;9729;52.296;13.260;2023-09-19T02:18:33;5.60;;;5.00;;
19193;SDS011;9729;52.296;13.260;2023-09-19T02:21:00;8.27;;;5.50;;
19193;SDS011;9729;52.296;13.260;2023-09-19T02:23:27;7.37;;;5.07;;
19193;SDS011;9729;52.296;13.260;2023-09-19T02:25:54;5.67;;;4.80;;
19193;SDS011;9729;52.296;13.260;2023-09-19T02:28:23;6.17;;;4.83;;
19193;SDS011;9729;52.296;13.260;2023-09-19T02:30:49;6.57;;;5.53;;
19193;SDS011;9729;52.296;13.260;2023-09-19T02:33:15;5.20;;;4.80;;
19193;SDS011;9729;52.296;13.260;2023-09-19T02:35:44;5.80;;;5.13;;
19193;SDS011;9729;52.296;13.260;2023-09-19T02:38:11;9.03;;;5.50;;
19193;SDS011;9729;52.296;13.260;2023-09-19T02:40:37;5.73;;;5.23;;
19193;SDS011;9729;52.296;13.260;2023-09-19T02:43:04;6.17;;;4.80;;
19193;SDS011;9729;52.296;13.260;2023-09-19T02:45:30;5.73;;;4.80;;
19193;SDS011;9729;52.296;13.260;2023-09-19T02:47:57;8.60;;;5.10;;
19193;SDS011;9729;52.296;13.260;2023-09-19T02:50:24;5.53;;;4.80;;
19193;SDS011;9729;52.296;13.260;2023-09-19T02:52:51;5.73;;;4.93;;
19193;SDS011;9729;52.296;13.260;2023-09-19T02:55:18;5.63;;;5.10;;
19193;SDS011;9729;52.296;13.260;2023-09-19T02:57:47;10.47;;;5.53;;
19193;SDS011;9729;52.296;13.260;2023-09-19T03:00:14;6.43;;;5.00;;
19193;SDS011;9729;52.296;13.260;2023-09-19T03:02:41;6.07;;;5.50;;
19193;SDS011;9729;52.296;13.260;2023-09-19T03:05:08;7.23;;;5.43;;
19193;SDS011;9729;52.296;13.260;2023-09-19T03:07:36;5.73;;;5.13;;
19193;SDS011;9729;52.296;13.260;2023-09-19T03:10:04;6.00;;;5.40;;
19193;SDS011;9729;52.296;13.260;2023-09-19T03:12:32;6.17;;;5.23;;
19193;SDS011;9729;52.296;13.260;2023-09-19T03:14:59;6.53;;;5.17;;
19193;SDS011;9729;52.296;13.260;2023-09-19T03:17:25;7.63;;;5.33;;
19193;SDS011;9729;52.296;13.260;2023-09-19T03:19:52;6.37;;;5.73;;
19193;SDS011;9729;52.296;13.260;2023-09-19T03:22:18;6.50;;;5.70;;
19193;SDS011;9729;52.296;13.260;2023-09-19T03:24:45;11.70;;;5.43;;
19193;SDS011;9729;52.296;13.260;2023-09-19T03:27:13;5.10;;;4.60;;
19193;SDS011;9729;52.296;13.260;2023-09-19T03:29:40;8.67;;;5.60;;
19193;SDS011;9729;52.296;13.260;2023-09-19T03:32:07;6.33;;;5.60;;
19193;SDS011;9729;52.296;13.260;2023-09-19T03:34:35;6.43;;;5.60;;
19193;SDS011;9729;52.296;13.260;2023-09-19T03:37:02;10.53;;;5.50;;
19193;SDS011;9729;52.296;13.260;2023-09-19T03:39:29;7.97;;;5.60;;
19193;SDS011;9729;52.296;13.260;2023-09-19T03:41:55;7.17;;;5.87;;
19193;SDS011;9729;52.296;13.260;2023-09-19T03:44:22;6.90;;;6.20;;
19193;SDS011;9729;52.296;13.260;2023-09-19T03:46:49;8.30;;;5.97;;
19193;SDS011;9729;52.296;13.260;2023-09-19T03:49:15;7.53;;;5.83;;
19193;SDS011;9729;52.296;13.260;2023-09-19T03:51:41;6.30;;;5.33;;
19193;SDS011;9729;52.296;13.260;2023-09-19T03:54:08;10.13;;;6.07;;
19193;SDS011;9729;52.296;13.260;2023-09-19T03:56:34;8.20;;;5.73;;
19193;SDS011;9729;52.296;13.260;2023-09-19T03:59:01;9.80;;;6.40;;
19193;SDS011;9729;52.296;13.260;2023-09-19T04:01:29;8.33;;;5.87;;
19193;SDS011;9729;52.296;13.260;2023-09-19T04:03:57;5.70;;;5.20;;
19193;SDS011;9729;52.296;13.260;2023-09-19T04:06:23;6.03;;;5.53;;
19193;SDS011;9729;52.296;13.260;2023-09-19T04:08:49;5.93;;;5.37;;
19193;SDS011;9729;52.296;13.260;2023-09-19T04:11:16;10.53;;;6.47;;
19193;SDS011;9729;52.296;13.260;2023-09-19T04:13:42;7.97;;;4.77;;
19193;SDS011;9729;52.296;13.260;2023-09-19T04:16:08;8.47;;;5.17;;
19193;SDS011;9729;52.296;13.260;2023-09-19T04:18:36;8.03;;;4.80;;
19193;SDS011;9729;52.296;13.260;2023-09-19T04:21:04;5.27;;;4.77;;
19193;SDS011;9729;52.296;13.260;2023-09-19T04:23:31;8.93;;;4.50;;
19193;SDS011;9729;52.296;13.260;2023-09-19T04:25:57;5.13;;;4.63;;
19193;SDS011;9729;52.296;13.260;2023-09-19T04:28:23;5.27;;;4.87;;
19193;SDS011;9729;52.296;13.260;2023-09-19T04:30:50;5.33;;;4.87;;
19193;SDS011;9729;52.296;13.260;2023-09-19T04:33:16;5.20;;;4.70;;
19193;SDS011;9729;52.296;13.260;2023-09-19T04:35:44;5.03;;;4.53;;
19193;SDS011;9729;52.296;13.260;2023-09-19T04:38:10;5.97;;;5.10;;
19193;SDS011;9729;52.296;13.260;2023-09-19T04:40:37;5.53;;;5.03;;
19193;SDS011;9729;52.296;13.260;2023-09-19T04:43:04;5.73;;;5.23;;
19193;SDS011;9729;52.296;13.260;2023-09-19T04:45:32;7.07;;;4.60;;
19193;SDS011;9729;52.296;13.260;2023-09-19T04:47:59;5.73;;;4.77;;
19193;SDS011;9729;52.296;13.260;2023-09-19T04:50:29;5.53;;;5.03;;
19193;SDS011;9729;52.296;13.260;2023-09-19T04:52:57;5.93;;;5.10;;
19193;SDS011;9729;52.296;13.260;2023-09-19T04:55:24;5.40;;;4.67;;
19193;SDS011;9729;52.296;13.260;2023-09-19T04:57:51;5.10;;;4.53;;
19193;SDS011;9729;52.296;13.260;2023-09-19T05:00:18;4.93;;;4.40;;
19193;SDS011;9729;52.296;13.260;2023-09-19T05:02:49;4.87;;;4.40;;
19193;SDS011;9729;52.296;13.260;2023-09-19T05:05:17;4.50;;;4.13;;
19193;SDS011;9729;52.296;13.260;2023-09-19T05:07:44;5.63;;;4.47;;
19193;SDS011;9729;52.296;13.260;2023-09-19T05:10:11;4.90;;;4.50;;
19193;SDS011;9729;52.296;13.260;2023-09-19T05:12:38;4.80;;;4.47;;
19193;SDS011;9729;52.296;13.260;2023-09-19T05:15:05;5.37;;;4.30;;
19193;SDS011;9729;52.296;13.260;2023-09-19T05:17:33;5.30;;;4.80;;
19193;SDS011;9729;52.296;13.260;2023-09-19T05:19:59;4.47;;;4.10;;
19193;SDS011;9729;52.296;13.260;2023-09-19T05:22:40;5.97;;;4.70;;
19193;SDS011;9729;52.296;13.260;2023-09-19T05:25:08;5.47;;;4.97;;
19193;SDS011;9729;52.296;13.260;2023-09-19T05:27:36;6.07;;;4.50;;
19193;SDS011;9729;52.296;13.260;2023-09-19T05:30:02;4.90;;;4.50;;
19193;SDS011;9729;52.296;13.260;2023-09-19T05:32:29;5.90;;;4.47;;
19193;SDS011;9729;52.296;13.260;2023-09-19T05:34:56;5.47;;;4.90;;
19193;SDS011;9729;52.296;13.260;2023-09-19T05:37:22;5.00;;;4.50;;
19193;SDS011;9729;52.296;13.260;2023-09-19T05:39:51;4.63;;;4.33;;
19193;SDS011;9729;52.296;13.260;2023-09-19T05:42:18;8.63;;;5.00;;
19193;SDS011;9729;52.296;13.260;2023-09-19T05:44:45;14.23;;;5.10;;
19193;SDS011;9729;52.296;13.260;2023-09-19T05:47:12;11.57;;;5.20;;
19193;SDS011;9729;52.296;13.260;2023-09-19T05:49:38;7.13;;;5.30;;
19193;SDS011;9729;52.296;13.260;2023-09-19T05:52:04;5.83;;;5.00;;
19193;SDS011;9729;52.296;13.260;2023-09-19T05:54:31;4.83;;;4.37;;
19193;SDS011;9729;52.296;13.260;2023-09-19T05:56:58;6.70;;;5.37;;
19193;SDS011;9729;52.296;13.260;2023-09-19T05:59:24;5.20;;;4.70;;
19193;SDS011;9729;52.296;13.260;2023-09-19T06:01:52;6.00;;;5.40;;
19193;SDS011;9729;52.296;13.260;2023-09-19T06:04:18;7.00;;;4.57;;
19193;SDS011;9729;52.296;13.260;2023-09-19T06:06:45;9.87;;;4.63;;
19193;SDS011;9729;52.296;13.260;2023-09-19T06:09:13;5.00;;;4.57;;
19193;SDS011;9729;52.296;13.260;2023-09-19T06:11:41;9.60;;;5.17;;
19193;SDS011;9729;52.296;13.260;2023-09-19T06:14:07;6.70;;;5.40;;
19193;SDS011;9729;52.296;13.260;2023-09-19T06:16:35;5.13;;;4.50;;
19193;SDS011;9729;52.296;13.260;2023-09-19T06:19:04;9.10;;;5.63;;
19193;SDS011;9729;52.296;13.260;2023-09-19T06:21:31;4.47;;;4.20;;
19193;SDS011;9729;52.296;13.260;2023-09-19T06:23:58;7.90;;;4.70;;
19193;SDS011;9729;52.296;13.260;2023-09-19T06:26:25;7.87;;;4.73;;
19193;SDS011;9729;52.296;13.260;2023-09-19T06:28:52;5.87;;;4.37;;
19193;SDS011;9729;52.296;13.260;2023-09-19T06:31:18;8.80;;;5.20;;
19193;SDS011;9729;52.296;13.260;2023-09-19T06:33:47;7.20;;;4.40;;
19193;SDS011;9729;52.296;13.260;2023-09-19T06:36:15;7.00;;;4.37;;
19193;SDS011;9729;52.296;13.260;2023-09-19T06:38:42;7.37;;;4.87;;
19193;SDS011;9729;52.296;13.260;2023-09-19T06:41:08;7.87;;;4.60;;
19193;SDS011;9729;52.296;13.260;2023-09-19T06:43:35;6.13;;;4.10;;
19193;SDS011;9729;52.296;13.260;2023-09-19T06:46:01;6.00;;;4.80;;
19193;SDS011;9729;52.296;13.260;2023-09-19T06:48:28;5.80;;;4.50;;
19193;SDS011;9729;52.296;13.260;2023-09-19T06:50:55;11.33;;;4.37;;
19193;SDS011;9729;52.296;13.260;2023-09-19T06:53:24;7.93;;;4.77;;
19193;SDS011;9729;52.296;13.260;2023-09-19T06:55:51;5.17;;;4.47;;
19193;SDS011;9729;52.296;13.260;2023-09-19T06:58:18;6.00;;;4.20;;
19193;SDS011;9729;52.296;13.260;2023-09-19T07:00:45;8.17;;;4.40;;
19193;SDS011;9729;52.296;13.260;2023-09-19T07:03:12;6.93;;;4.57;;
19193;SDS011;9729;52.296;13.260;2023-09-19T07:05:41;4.47;;;3.93;;
19193;SDS011;9729;52.296;13.260;2023-09-19T07:08:08;7.37;;;4.30;;
19193;SDS011;9729;52.296;13.260;2023-09-19T07:10:38;5.87;;;4.00;;
19193;SDS011;9729;52.296;13.260;2023-09-19T07:13:06;7.40;;;3.93;;
19193;SDS011;9729;52.296;13.260;2023-09-19T07:15:34;7.67;;;4.57;;
19193;SDS011;9729;52.296;13.260;2023-09-19T07:18:04;4.90;;;4.00;;
19193;SDS011;9729;52.296;13.260;2023-09-19T07:20:31;5.07;;;4.00;;
19193;SDS011;9729;52.296;13.260;2023-09-19T07:22:59;5.80;;;3.70;;
19193;SDS011;9729;52.296;13.260;2023-09-19T07:25:26;7.30;;;4.23;;
19193;SDS011;9729;52.296;13.260;2023-09-19T07:27:54;6.20;;;4.23;;
19193;SDS011;9729;52.296;13.260;2023-09-19T07:30:21;8.20;;;3.93;;
19193;SDS011;9729;52.296;13.260;2023-09-19T07:32:48;7.73;;;4.13;;
19193;SDS011;9729;52.296;13.260;2023-09-19T07:35:14;4.07;;;3.70;;
19193;SDS011;9729;52.296;13.260;2023-09-19T07:37:41;6.97;;;4.03;;
19193;SDS011;9729;52.296;13.260;2023-09-19T07:40:07;5.27;;;3.83;;
19193;SDS011;9729;52.296;13.260;2023-09-19T07:42:35;10.10;;;4.43;;
19193;SDS011;9729;52.296;13.260;2023-09-19T07:45:03;5.83;;;4.50;;
19193;SDS011;9729;52.296;13.260;2023-09-19T07:47:30;10.37;;;4.77;;
19193;SDS011;9729;52.296;13.260;2023-09-19T07:49:57;8.23;;;4.67;;
19193;SDS011;9729;52.296;13.260;2023-09-19T07:52:23;9.43;;;5.07;;
19193;SDS011;9729;52.296;13.260;2023-09-19T07:54:50;4.73;;;4.33;;
19193;SDS011;9729;52.296;13.260;2023-09-19T07:57:16;9.77;;;4.90;;
19193;SDS011;9729;52.296;13.260;2023-09-19T07:59:42;12.63;;;5.90;;
19193;SDS011;9729;52.296;13.260;2023-09-19T08:02:10;11.73;;;4.80;;
19193;SDS011;9729;52.296;13.260;2023-09-19T08:04:40;7.57;;;5.13;;
19193;SDS011;9729;52.296;13.260;2023-09-19T08:07:07;4.93;;;4.47;;
19193;SDS011;9729;52.296;13.260;2023-09-19T08:09:36;10.23;;;4.73;;
19193;SDS011;9729;52.296;13.260;2023-09-19T08:12:03;9.70;;;4.57;;
19193;SDS011;9729;52.296;13.260;2023-09-19T08:14:30;9.67;;;4.70;;
19193;SDS011;9729;52.296;13.260;2023-09-19T08:16:57;7.60;;;4.30;;
19193;SDS011;9729;52.296;13.260;2023-09-19T08:19:25;7.60;;;4.30;;
19193;SDS011;9729;52.296;13.260;2023-09-19T08:21:53;7.43;;;4.30;;
19193;SDS011;9729;52.296;13.260;2023-09-19T08:24:21;6.13;;;4.37;;
19193;SDS011;9729;52.296;13.260;2023-09-19T08:26:48;10.47;;;4.90;;
19193;SDS011;9729;52.296;13.260;2023-09-19T08:29:16;10.37;;;4.67;;
19193;SDS011;9729;52.296;13.260;2023-09-19T08:31:42;9.10;;;5.30;;
19193;SDS011;9729;52.296;13.260;2023-09-19T08:34:09;8.37;;;5.57;;
19193;SDS011;9729;52.296;13.260;2023-09-19T08:36:37;10.53;;;4.87;;
19193;SDS011;9729;52.296;13.260;2023-09-19T08:39:04;9.87;;;5.40;;
19193;SDS011;9729;52.296;13.260;2023-09-19T08:41:30;8.70;;;5.73;;
19193;SDS011;9729;52.296;13.260;2023-09-19T08:43:58;6.57;;;4.70;;
19193;SDS011;9729;52.296;13.260;2023-09-19T08:46:26;5.70;;;4.60;;
19193;SDS011;9729;52.296;13.260;2023-09-19T08:48:57;5.53;;;4.00;;
19193;SDS011;9729;52.296;13.260;2023-09-19T08:51:30;6.97;;;4.40;;
19193;SDS011;9729;52.296;13.260;2023-09-19T08:54:03;10.33;;;3.97;;
19193;SDS011;9729;52.296;13.260;2023-09-19T08:56:30;6.23;;;4.00;;
19193;SDS011;9729;52.296;13.260;2023-09-19T08:58:59;12.17;;;5.07;;
19193;SDS011;9729;52.296;13.260;2023-09-19T09:01:27;10.17;;;5.00;;
19193;SDS011;9729;52.296;13.260;2023-09-19T09:03:54;5.23;;;4.30;;
19193;SDS011;9729;52.296;13.260;2023-09-19T09:06:22;7.87;;;4.60;;
19193;SDS011;9729;52.296;13.260;2023-09-19T09:08:50;7.30;;;4.23;;
19193;SDS011;9729;52.296;13.260;2023-09-19T09:11:18;7.80;;;4.37;;
19193;SDS011;9729;52.296;13.260;2023-09-19T09:13:45;8.73;;;3.60;;
19193;SDS011;9729;52.296;13.260;2023-09-19T09:16:13;9.57;;;4.30;;
19193;SDS011;9729;52.296;13.260;2023-09-19T09:18:43;9.20;;;4.20;;
19193;SDS011;9729;52.296;13.260;2023-09-19T09:21:10;12.13;;;4.20;;
19193;SDS011;9729;52.296;13.260;2023-09-19T09:23:36;6.03;;;3.60;;
19193;SDS011;9729;52.296;13.260;2023-09-19T09:26:03;8.37;;;3.53;;
19193;SDS011;9729;52.296;13.260;2023-09-19T09:28:33;8.53;;;3.83;;
19193;SDS011;9729;52.296;13.260;2023-09-19T09:31:00;4.33;;;3.20;;
19193;SDS011;9729;52.296;13.260;2023-09-19T09:33:33;11.17;;;4.20;;
19193;SDS011;9729;52.296;13.260;2023-09-19T09:36:00;8.83;;;4.10;;
19193;SDS011;9729;52.296;13.260;2023-09-19T09:38:28;7.63;;;4.10;;
19193;SDS011;9729;52.296;13.260;2023-09-19T09:40:57;12.53;;;3.53;;
19193;SDS011;9729;52.296;13.260;2023-09-19T09:43:33;17.33;;;4.33;;
19193;SDS011;9729;52.296;13.260;2023-09-19T09:46:06;5.37;;;3.80;;
19193;SDS011;9729;52.296;13.260;2023-09-19T09:49:02;8.33;;;4.20;;
19193;SDS011;9729;52.296;13.260;2023-09-19T09:51:43;15.53;;;4.27;;
19193;SDS011;9729;52.296;13.260;2023-09-19T09:54:14;10.07;;;4.63;;
19193;SDS011;9729;52.296;13.260;2023-09-19T09:56:54;12.03;;;4.60;;
19193;SDS011;9729;52.296;13.260;2023-09-19T09:59:27;8.63;;;4.40;;
19193;SDS011;9729;52.296;13.260;2023-09-19T10:02:11;13.23;;;4.90;;
19193;SDS011;9729;52.296;13.260;2023-09-19T10:04:38;10.00;;;4.83;;
19193;SDS011;9729;52.296;13.260;2023-09-19T10:07:23;13.70;;;4.30;;
19193;SDS011;9729;52.296;13.260;2023-09-19T10:09:52;10.07;;;5.00;;
19193;SDS011;9729;52.296;13.260;2023-09-19T10:12:24;7.30;;;4.47;;
19193;SDS011;9729;52.296;13.260;2023-09-19T10:14:53;13.37;;;4.23;;
19193;SDS011;9729;52.296;13.260;2023-09-19T10:17:22;9.90;;;4.10;;
19193;SDS011;9729;52.296;13.260;2023-09-19T10:19:53;10.50;;;4.67;;
19193;SDS011;9729;52.296;13.260;2023-09-19T10:22:22;11.70;;;4.67;;
19193;SDS011;9729;52.296;13.260;2023-09-19T10:24:49;11.03;;;4.67;;
19193;SDS011;9729;52.296;13.260;2023-09-19T10:27:18;7.33;;;4.03;;
19193;SDS011;9729;52.296;13.260;2023-09-19T10:29:45;12.17;;;5.23;;
19193;SDS011;9729;52.296;13.260;2023-09-19T10:32:17;6.50;;;4.17;;
19193;SDS011;9729;52.296;13.260;2023-09-19T10:34:44;8.23;;;3.57;;
19193;SDS011;9729;52.296;13.260;2023-09-19T10:37:12;14.33;;;3.93;;
19193;SDS011;9729;52.296;13.260;2023-09-19T10:39:40;9.10;;;4.27;;
19193;SDS011;9729;52.296;13.260;2023-09-19T10:42:07;11.67;;;4.20;;
19193;SDS011;9729;52.296;13.260;2023-09-19T10:44:37;8.10;;;4.20;;
19193;SDS011;9729;52.296;13.260;2023-09-19T10:47:05;6.43;;;3.60;;
19193;SDS011;9729;52.296;13.260;2023-09-19T10:49:33;7.33;;;3.83;;
19193;SDS011;9729;52.296;13.260;2023-09-19T10:52:00;10.00;;;4.00;;
19193;SDS011;9729;52.296;13.260;2023-09-19T10:54:27;9.93;;;3.80;;
19193;SDS011;9729;52.296;13.260;2023-09-19T10:56:55;9.07;;;3.80;;
19193;SDS011;9729;52.296;13.260;2023-09-19T10:59:23;10.77;;;3.97;;
19193;SDS011;9729;52.296;13.260;2023-09-19T11:01:51;8.00;;;3.63;;
19193;SDS011;9729;52.296;13.260;2023-09-19T11:04:22;10.27;;;4.00;;
19193;SDS011;9729;52.296;13.260;2023-09-19T11:07:02;9.27;;;3.83;;
19193;SDS011;9729;52.296;13.260;2023-09-19T11:09:42;12.53;;;4.37;;
19193;SDS011;9729;52.296;13.260;2023-09-19T11:12:11;6.73;;;4.00;;
19193;SDS011;9729;52.296;13.260;2023-09-19T11:14:41;10.30;;;4.00;;
19193;SDS011;9729;52.296;13.260;2023-09-19T11:23:20;9.80;;;4.53;;
19193;SDS011;9729;52.296;13.260;2023-09-19T11:25:55;6.60;;;3.80;;
19193;SDS011;9729;52.296;13.260;2023-09-19T11:28:35;8.97;;;3.90;;
19193;SDS011;9729;52.296;13.260;2023-09-19T11:40:37;5.97;;;3.50;;
19193;SDS011;9729;52.296;13.260;2023-09-19T11:46:08;9.87;;;4.57;;
19193;SDS011;9729;52.296;13.260;2023-09-19T11:48:34;5.97;;;3.20;;
19193;SDS011;9729;52.296;13.260;2023-09-19T11:51:03;8.87;;;4.07;;
19193;SDS011;9729;52.296;13.260;2023-09-19T11:53:40;8.33;;;3.30;;
19193;SDS011;9729;52.296;13.260;2023-09-19T11:56:09;6.07;;;3.83;;
19193;SDS011;9729;52.296;13.260;2023-09-19T11:58:36;8.70;;;4.23;;
19193;SDS011;9729;52.296;13.260;2023-09-19T12:01:04;8.70;;;4.15;;
19193;SDS011;9729;52.296;13.260;2023-09-19T12:03:33;8.48;;;4.38;;
19193;SDS011;9729;52.296;13.260;2023-09-19T12:06:10;8.33;;;4.20;;
19193;SDS011;9729;52.296;13.260;2023-09-19T12:08:38;13.90;;;4.10;;
19193;SDS011;9729;52.296;13.260;2023-09-19T12:11:07;5.67;;;3.70;;
19193;SDS011;9729;52.296;13.260;2023-09-19T12:13:36;3.70;;;3.10;;
19193;SDS011;9729;52.296;13.260;2023-09-19T12:16:10;7.30;;;3.87;;
19193;SDS011;9729;52.296;13.260;2023-09-19T12:18:40;7.37;;;3.80;;
19193;SDS011;9729;52.296;13.260;2023-09-19T12:21:06;8.63;;;3.70;;
19193;SDS011;9729;52.296;13.260;2023-09-19T12:23:37;20.03;;;4.43;;
19193;SDS011;9729;52.296;13.260;2023-09-19T12:26:06;7.73;;;4.10;;
19193;SDS011;9729;52.296;13.260;2023-09-19T12:28:40;8.10;;;3.60;;
19193;SDS011;9729;52.296;13.260;2023-09-19T12:31:08;7.67;;;3.60;;
19193;SDS011;9729;52.296;13.260;2023-09-19T12:33:34;16.07;;;5.23;;
19193;SDS011;9729;52.296;13.260;2023-09-19T12:36:05;5.00;;;3.30;;
19193;SDS011;9729;52.296;13.260;2023-09-19T12:38:50;12.03;;;3.97;;
19193;SDS011;9729;52.296;13.260;2023-09-19T12:41:18;5.47;;;3.27;;
19193;SDS011;9729;52.296;13.260;2023-09-19T12:43:47;4.87;;;3.00;;
19193;SDS011;9729;52.296;13.260;2023-09-19T12:46:13;4.97;;;3.50;;
19193;SDS011;9729;52.296;13.260;2023-09-19T12:48:44;7.13;;;2.87;;
19193;SDS011;9729;52.296;13.260;2023-09-19T12:51:13;7.27;;;3.60;;
19193;SDS011;9729;52.296;13.260;2023-09-19T12:53:41;5.40;;;2.93;;
19193;SDS011;9729;52.296;13.260;2023-09-19T12:56:09;9.20;;;3.47;;
19193;SDS011;9729;52.296;13.260;2023-09-19T12:58:49;7.03;;;3.27;;
19193;SDS011;9729;52.296;13.260;2023-09-19T13:01:16;4.20;;;3.00;;
19193;SDS011;9729;52.296;13.260;2023-09-19T13:03:43;9.33;;;3.30;;
19193;SDS011;9729;52.296;13.260;2023-09-19T13:06:10;11.67;;;3.30;;
19193;SDS011;9729;52.296;13.260;2023-09-19T13:08:37;6.97;;;3.10;;
19193;SDS011;9729;52.296;13.260;2023-09-19T13:11:08;5.40;;;3.27;;
19193;SDS011;9729;52.296;13.260;2023-09-19T13:13:39;8.30;;;3.73;;
19193;SDS011;9729;52.296;13.260;2023-09-19T13:16:07;6.80;;;3.50;;
19193;SDS011;9729;52.296;13.260;2023-09-19T13:18:43;4.77;;;2.90;;
19193;SDS011;9729;52.296;13.260;2023-09-19T13:21:11;4.90;;;2.90;;
19193;SDS011;9729;52.296;13.260;2023-09-19T13:23:40;5.17;;;3.10;;
19193;SDS011;9729;52.296;13.260;2023-09-19T13:26:08;5.07;;;2.93;;
19193;SDS011;9729;52.296;13.260;2023-09-19T13:28:35;7.97;;;4.20;;
19193;SDS011;9729;52.296;13.260;2023-09-19T13:31:04;8.57;;;3.97;;
19193;SDS011;9729;52.296;13.260;2023-09-19T13:33:33;6.67;;;3.30;;
19193;SDS011;9729;52.296;13.260;2023-09-19T13:36:00;5.57;;;3.50;;
19193;SDS011;9729;52.296;13.260;2023-09-19T13:38:27;4.10;;;3.43;;
19193;SDS011;9729;52.296;13.260;2023-09-19T13:40:53;6.03;;;3.83;;
19193;SDS011;9729;52.296;13.260;2023-09-19T13:43:21;10.63;;;4.40;;
19193;SDS011;9729;52.296;13.260;2023-09-19T13:45:47;6.47;;;3.40;;
19193;SDS011;9729;52.296;13.260;2023-09-19T13:48:15;8.27;;;3.70;;
19193;SDS011;9729;52.296;13.260;2023-09-19T13:50:46;3.93;;;3.53;;
19193;SDS011;9729;52.296;13.260;2023-09-19T13:53:12;7.83;;;4.20;;
19193;SDS011;9729;52.296;13.260;2023-09-19T13:55:39;7.73;;;3.60;;
19193;SDS011;9729;52.296;13.260;2023-09-19T13:58:06;6.43;;;3.20;;
19193;SDS011;9729;52.296;13.260;2023-09-19T14:00:34;8.93;;;3.70;;
19193;SDS011;9729;52.296;13.260;2023-09-19T14:03:00;6.23;;;4.10;;
19193;SDS011;9729;52.296;13.260;2023-09-19T14:05:27;4.03;;;3.20;;
19193;SDS011;9729;52.296;13.260;2023-09-19T14:07:56;5.40;;;3.40;;
19193;SDS011;9729;52.296;13.260;2023-09-19T14:10:23;3.87;;;3.40;;
19193;SDS011;9729;52.296;13.260;2023-09-19T14:12:50;6.33;;;4.33;;
19193;SDS011;9729;52.296;13.260;2023-09-19T14:15:16;5.80;;;3.93;;
19193;SDS011;9729;52.296;13.260;2023-09-19T14:17:43;5.63;;;4.20;;
19193;SDS011;9729;52.296;13.260;2023-09-19T14:20:10;6.33;;;3.90;;
19193;SDS011;9729;52.296;13.260;2023-09-19T14:22:37;9.77;;;3.67;;
19193;SDS011;9729;52.296;13.260;2023-09-19T14:25:05;7.23;;;3.83;;
19193;SDS011;9729;52.296;13.260;2023-09-19T14:27:32;4.40;;;4.00;;
19193;SDS011;9729;52.296;13.260;2023-09-19T14:29:58;8.60;;;4.37;;
19193;SDS011;9729;52.296;13.260;2023-09-19T14:32:24;9.53;;;4.70;;
19193;SDS011;9729;52.296;13.260;2023-09-19T14:34:51;10.87;;;4.00;;
19193;SDS011;9729;52.296;13.260;2023-09-19T14:37:17;8.70;;;4.23;;
19193;SDS011;9729;52.296;13.260;2023-09-19T14:39:46;7.00;;;4.10;;
19193;SDS011;9729;52.296;13.260;2023-09-19T14:42:14;6.67;;;4.17;;
19193;SDS011;9729;52.296;13.260;2023-09-19T14:44:42;7.87;;;4.03;;
19193;SDS011;9729;52.296;13.260;2023-09-19T14:47:09;11.13;;;4.40;;
19193;SDS011;9729;52.296;13.260;2023-09-19T14:49:38;7.63;;;4.10;;
19193;SDS011;9729;52.296;13.260;2023-09-19T14:52:06;6.87;;;4.30;;
19193;SDS011;9729;52.296;13.260;2023-09-19T14:54:33;5.17;;;4.57;;
19193;SDS011;9729;52.296;13.260;2023-09-19T14:57:00;10.10;;;5.20;;
19193;SDS011;9729;52.296;13.260;2023-09-19T14:59:31;7.33;;;4.80;;
19193;SDS011;9729;52.296;13.260;2023-09-19T15:01:58;5.00;;;4.33;;
19193;SDS011;9729;52.296;13.260;2023-09-19T15:04:24;7.33;;;4.30;;
19193;SDS011;9729;52.296;13.260;2023-09-19T15:06:51;8.97;;;5.57;;
19193;SDS011;9729;52.296;13.260;2023-09-19T15:09:19;10.93;;;4.70;;
19193;SDS011;9729;52.296;13.260;2023-09-19T15:11:47;7.37;;;4.60;;
19193;SDS011;9729;52.296;13.260;2023-09-19T15:14:13;8.00;;;3.93;;